Time;durP1;ratioP1;P1;durP2;ratioP2;P2;SDS_P1;SDS_P2;PMS_P1;PMS_P2;Temp;Humidity;BMP_temperature;BMP_pressure;BME280_temperature;BME280_humidity;BME280_pressure;Samples;Min_cycle;Max_cycle;Signal;HPM_P1;HPM_P2
2023/07/15 00:00:22;;;;;;;10.15;7.20;;;;;;;16.71;77.98;99194.06;5092966;28;20111;-48
2023/07/15 00:02:48;;;;;;;10.77;7.60;;;;;;;16.74;77.80;99193.69;5086131;28;20038;-54
2023/07/15 00:05:26;;;;;;;13.32;7.15;;;;;;;16.79;77.94;99202.13;5072588;28;20029;-53
2023/07/15 00:07:51;;;;;;;11.75;7.38;;;;;;;16.74;77.71;99186.44;5072452;28;20048;-54
2023/07/15 00:10:19;;;;;;;15.45;7.97;;;;;;;16.70;77.80;99187.84;5072931;28;20047;-54
2023/07/15 00:12:44;;;;;;;11.43;7.65;;;;;;;16.72;77.88;99191.19;5073100;28;20036;-60
2023/07/15 00:15:12;;;;;;;9.00;7.45;;;;;;;16.77;77.79;99196.91;5072443;28;20021;-52
2023/07/15 00:17:39;;;;;;;8.93;8.02;;;;;;;16.75;77.74;99190.84;5073207;28;20448;-52
2023/07/15 00:20:07;;;;;;;9.15;7.50;;;;;;;16.75;77.33;99185.44;5072584;28;20099;-54
2023/07/15 00:22:35;;;;;;;10.43;9.02;;;;;;;16.74;77.42;99170.22;5072552;28;20065;-53
2023/07/15 00:25:01;;;;;;;11.65;7.38;;;;;;;16.77;77.32;99183.38;5072105;28;20488;-57
2023/07/15 00:27:27;;;;;;;13.70;7.18;;;;;;;16.70;77.12;99163.50;5072040;28;20021;-55
2023/07/15 00:29:53;;;;;;;8.02;7.22;;;;;;;16.56;77.01;99142.66;5072687;28;20345;-51
2023/07/15 00:32:19;;;;;;;9.48;7.25;;;;;;;16.74;77.03;99182.88;5073328;28;20353;-53
2023/07/15 00:34:44;;;;;;;8.05;7.15;;;;;;;16.74;77.21;99186.44;5072336;28;20142;-53
2023/07/15 00:37:10;;;;;;;7.43;6.70;;;;;;;16.53;77.27;99138.47;5074704;28;20445;-56
2023/07/15 00:39:36;;;;;;;8.65;7.72;;;;;;;16.78;77.21;99179.66;5091716;28;20248;-56
2023/07/15 00:42:09;;;;;;;10.93;8.05;;;;;;;16.86;77.32;99180.59;5092173;28;20447;-53
2023/07/15 00:44:34;;;;;;;9.55;7.43;;;;;;;16.83;77.23;99171.00;5091355;28;20032;-51
2023/07/15 00:47:21;;;;;;;8.68;6.97;;;;;;;16.83;77.01;99179.13;5092228;28;20305;-52
2023/07/15 00:49:49;;;;;;;8.23;6.93;;;;;;;16.85;76.95;99177.06;5092881;28;20028;-60
2023/07/15 00:52:16;;;;;;;8.18;7.10;;;;;;;16.84;77.27;99179.94;5090847;28;20028;-49
2023/07/15 00:54:45;;;;;;;10.57;7.63;;;;;;;16.83;77.03;99183.66;5092399;28;20461;-53
2023/07/15 00:57:14;;;;;;;8.48;6.25;;;;;;;16.84;76.94;99183.50;5090720;28;20073;-52
2023/07/15 00:59:41;;;;;;;10.15;7.22;;;;;;;16.83;77.16;99180.97;5091748;28;20024;-57
2023/07/15 01:02:09;;;;;;;10.20;7.63;;;;;;;16.81;77.10;99178.47;5092073;28;20294;-55
2023/07/15 01:04:35;;;;;;;8.32;7.15;;;;;;;16.82;76.78;99179.28;5092198;28;20444;-53
2023/07/15 01:07:02;;;;;;;11.10;7.47;;;;;;;16.82;76.42;99182.00;5093106;28;20042;-56
2023/07/15 01:09:28;;;;;;;9.90;7.03;;;;;;;16.83;75.44;99179.13;5095914;28;20063;-54
2023/07/15 01:11:54;;;;;;;7.60;6.60;;;;;;;16.78;75.32;99168.00;5095876;28;20032;-54
2023/07/15 01:14:20;;;;;;;7.75;5.97;;;;;;;16.77;74.95;99172.56;5094878;28;20046;-57
2023/07/15 01:16:47;;;;;;;7.93;5.53;;;;;;;16.77;74.52;99172.56;5079313;28;20468;-54
2023/07/15 01:19:18;;;;;;;7.32;5.68;;;;;;;16.72;74.25;99174.13;5077488;28;20040;-54
2023/07/15 01:21:52;;;;;;;6.88;5.65;;;;;;;16.74;74.22;99163.97;5075079;28;20060;-54
2023/07/15 01:24:18;;;;;;;7.30;5.85;;;;;;;16.70;74.20;99160.81;5075535;28;20460;-54
2023/07/15 01:26:44;;;;;;;5.95;5.15;;;;;;;16.42;73.85;99120.81;5076222;28;20043;-52
2023/07/15 01:29:09;;;;;;;6.60;4.97;;;;;;;16.66;73.66;99148.69;5075905;28;20028;-50
2023/07/15 01:31:36;;;;;;;12.38;4.78;;;;;;;16.61;73.67;99148.34;5075312;28;20029;-54
2023/07/15 01:34:02;;;;;;;5.45;4.15;;;;;;;16.62;73.76;99155.44;5093468;28;20024;-54
2023/07/15 01:36:28;;;;;;;4.68;4.18;;;;;;;16.60;73.72;99154.78;5082886;28;20341;-51
2023/07/15 01:38:53;;;;;;;5.65;4.53;;;;;;;16.58;73.69;99154.13;5075662;28;20030;-55
2023/07/15 01:41:19;;;;;;;5.90;4.50;;;;;;;16.53;73.44;99149.28;5095341;28;20032;-53
2023/07/15 01:43:44;;;;;;;4.70;4.30;;;;;;;16.58;73.96;99162.22;5095466;28;20052;-53
2023/07/15 01:46:10;;;;;;;6.20;4.63;;;;;;;16.58;73.78;99154.13;5095980;28;20047;-54
2023/07/15 01:48:36;;;;;;;4.57;4.10;;;;;;;16.55;73.71;99157.19;5095937;28;20064;-51
2023/07/15 01:51:01;;;;;;;4.68;4.28;;;;;;;16.59;73.55;99158.50;5095141;28;20489;-49
2023/07/15 01:53:27;;;;;;;7.60;4.50;;;;;;;16.59;73.66;99159.34;5095337;28;20420;-53
2023/07/15 01:55:52;;;;;;;5.57;3.83;;;;;;;16.63;73.25;99162.53;5077527;28;20060;-53
2023/07/15 01:58:18;;;;;;;3.83;3.50;;;;;;;16.64;73.04;99161.53;5075681;28;20078;-51
2023/07/15 02:00:43;;;;;;;6.35;3.55;;;;;;;16.63;73.07;99155.28;5075741;28;20420;-53
2023/07/15 02:03:09;;;;;;;4.85;3.50;;;;;;;16.69;73.22;99158.28;5088809;28;20039;-52
2023/07/15 02:05:35;;;;;;;3.60;3.30;;;;;;;16.44;72.73;99126.00;5095285;28;20410;-52
2023/07/15 02:08:02;;;;;;;3.60;3.25;;;;;;;16.69;72.78;99167.22;5095149;28;20131;-51
2023/07/15 02:10:30;;;;;;;4.05;2.85;;;;;;;16.68;72.82;99159.28;5094842;28;20371;-54
2023/07/15 02:12:56;;;;;;;4.20;3.10;;;;;;;16.66;72.68;99159.50;5094503;28;20106;-54
2023/07/15 02:15:21;;;;;;;3.40;2.70;;;;;;;16.61;72.77;99151.06;5095386;28;20124;-59
2023/07/15 02:17:47;;;;;;;2.85;2.65;;;;;;;16.60;72.91;99168.28;5095688;28;20094;-57
2023/07/15 02:20:12;;;;;;;3.45;3.13;;;;;;;16.57;73.34;99160.53;5091063;28;20028;-53
2023/07/15 02:22:41;;;;;;;2.83;2.63;;;;;;;16.58;73.66;99179.28;5074492;28;20110;-52
2023/07/15 02:25:07;;;;;;;4.93;2.70;;;;;;;16.47;73.86;99180.53;5074582;28;20075;-54
2023/07/15 02:27:32;;;;;;;3.03;2.72;;;;;;;16.42;74.29;99166.75;5091952;28;20085;-54
2023/07/15 02:29:58;;;;;;;3.60;2.80;;;;;;;16.43;74.22;99181.94;5094541;28;20035;-52
2023/07/15 02:32:39;;;;;;;3.95;2.80;;;;;;;16.55;74.34;99181.50;5087276;28;20110;-55
2023/07/15 02:35:10;;;;;;;6.28;3.00;;;;;;;16.47;74.57;99177.00;5074346;28;20429;-52
2023/07/15 02:37:41;;;;;;;3.35;2.65;;;;;;;16.49;74.40;99178.50;5074094;28;20508;-53
2023/07/15 02:40:08;;;;;;;3.05;2.85;;;;;;;16.46;74.92;99181.56;5076118;28;20471;-54
2023/07/15 02:42:34;;;;;;;2.95;2.65;;;;;;;16.33;74.93;99146.19;5093242;28;20080;-55
2023/07/15 02:45:03;;;;;;;2.88;2.30;;;;;;;16.55;74.36;99182.38;5092494;28;20035;-50
2023/07/15 02:47:34;;;;;;;2.25;2.10;;;;;;;16.34;74.36;99145.16;5094160;28;20028;-55
2023/07/15 02:50:05;;;;;;;1.90;1.80;;;;;;;16.60;74.63;99184.50;5091005;28;20356;-53
2023/07/15 02:52:35;;;;;;;2.28;2.08;;;;;;;16.56;74.29;99181.34;5073972;28;20119;-54
2023/07/15 02:55:05;;;;;;;3.17;2.00;;;;;;;16.46;74.39;99189.66;5073713;28;20043;-53
2023/07/15 02:57:33;;;;;;;2.00;1.80;;;;;;;16.46;74.70;99180.72;5073773;28;20142;-54
2023/07/15 03:00:00;;;;;;;1.73;1.63;;;;;;;16.42;74.66;99182.09;5076357;28;20037;-53
2023/07/15 03:02:29;;;;;;;1.98;1.70;;;;;;;16.46;74.59;99184.28;5093001;28;20034;-52
2023/07/15 03:04:55;;;;;;;1.70;1.60;;;;;;;16.52;74.35;99184.56;5093777;28;20505;-53
2023/07/15 03:07:21;;;;;;;3.40;1.90;;;;;;;16.55;74.35;99195.00;5094632;28;20055;-54
2023/07/15 03:09:47;;;;;;;2.20;1.65;;;;;;;16.57;74.18;99184.88;5092893;28;20116;-54
2023/07/15 03:12:12;;;;;;;1.90;1.67;;;;;;;16.58;74.27;99187.41;5092926;28;20374;-56
2023/07/15 03:14:38;;;;;;;1.85;1.70;;;;;;;16.55;74.16;99189.59;5087716;28;20040;-51
2023/07/15 03:17:04;;;;;;;2.00;1.30;;;;;;;16.57;74.22;99195.69;5074602;28;20037;-55
2023/07/15 03:19:31;;;;;;;1.42;1.33;;;;;;;16.58;74.17;99178.44;5073275;28;20043;-55
2023/07/15 03:21:59;;;;;;;2.15;1.90;;;;;;;16.65;74.33;99191.06;5089100;28;20415;-55
2023/07/15 03:24:29;;;;;;;2.65;1.60;;;;;;;16.67;74.30;99190.91;5094066;28;20036;-53
2023/07/15 03:26:54;;;;;;;2.50;1.60;;;;;;;16.71;74.00;99192.22;5093383;28;20077;-52
2023/07/15 03:29:22;;;;;;;1.70;1.60;;;;;;;16.70;74.09;99187.84;5088612;28;20020;-55
2023/07/15 03:31:49;;;;;;;1.70;1.60;;;;;;;16.74;73.97;99197.25;5090026;28;20402;-58
2023/07/15 03:34:15;;;;;;;1.83;1.38;;;;;;;16.73;74.01;99195.56;5093515;28;20028;-54
2023/07/15 03:36:40;;;;;;;1.63;1.40;;;;;;;16.74;73.92;99189.16;5093190;28;20035;-53
2023/07/15 03:39:06;;;;;;;1.50;1.33;;;;;;;16.60;73.91;99166.44;5083709;28;20031;-55
2023/07/15 03:41:35;;;;;;;3.92;1.48;;;;;;;16.91;74.03;99200.69;5074176;28;20040;-53
2023/07/15 03:44:02;;;;;;;3.60;1.67;;;;;;;16.90;73.93;99198.16;5073463;28;20036;-57
2023/07/15 03:46:27;;;;;;;1.42;1.30;;;;;;;16.93;73.60;99197.81;5072479;28;20037;-56
2023/07/15 03:48:53;;;;;;;3.85;1.65;;;;;;;16.99;73.69;99201.66;5072973;28;20071;-54
2023/07/15 03:51:18;;;;;;;2.78;1.60;;;;;;;17.03;73.44;99197.59;5084195;28;20375;-56
2023/07/15 03:53:44;;;;;;;2.10;0.95;;;;;;;17.07;73.39;99194.31;5093532;28;20043;-58
2023/07/15 03:56:09;;;;;;;3.58;1.50;;;;;;;17.01;73.19;99197.75;5092734;28;20389;-53
2023/07/15 03:58:35;;;;;;;3.03;1.13;;;;;;;16.94;73.64;99202.19;5092971;28;20436;-57
2023/07/15 04:01:00;;;;;;;3.08;1.23;;;;;;;16.92;73.79;99206.94;5082316;28;20033;-52
2023/07/15 04:03:26;;;;;;;2.22;1.10;;;;;;;16.77;73.86;99194.19;5081372;28;20024;-49
2023/07/15 04:05:51;;;;;;;1.50;1.13;;;;;;;16.82;74.30;99209.88;5092501;28;20047;-54
2023/07/15 04:08:17;;;;;;;2.25;1.23;;;;;;;16.85;74.96;99211.38;5092903;28;20880;-50
2023/07/15 04:10:46;;;;;;;1.10;1.00;;;;;;;16.89;74.46;99218.94;5081166;28;20039;-52
2023/07/15 04:13:12;;;;;;;1.83;0.98;;;;;;;16.77;74.35;99207.72;5073380;28;20502;-49
2023/07/15 04:15:38;;;;;;;1.38;1.00;;;;;;;16.70;74.60;99206.75;5072869;28;20146;-52
2023/07/15 04:18:03;;;;;;;1.95;1.27;;;;;;;16.60;74.85;99212.38;5072169;28;20036;-51
2023/07/15 04:20:29;;;;;;;1.80;1.33;;;;;;;16.59;75.32;99212.56;5080613;28;20452;-59
2023/07/15 04:22:55;;;;;;;2.22;1.00;;;;;;;16.54;75.12;99204.16;5093065;28;20126;-58
2023/07/15 04:25:20;;;;;;;3.38;1.30;;;;;;;16.52;75.28;99215.16;5092255;28;20028;-55
2023/07/15 04:27:46;;;;;;;1.15;1.05;;;;;;;16.52;75.68;99206.19;5081922;28;20480;-54
2023/07/15 04:30:11;;;;;;;3.03;1.20;;;;;;;16.59;75.56;99213.41;5076589;28;20039;-51
2023/07/15 04:32:37;;;;;;;1.60;1.50;;;;;;;16.64;75.80;99221.00;5092202;28;20470;-53
2023/07/15 04:35:03;;;;;;;2.20;1.10;;;;;;;16.64;75.27;99223.69;5092543;28;20020;-55
2023/07/15 04:37:31;;;;;;;1.50;1.10;;;;;;;16.62;75.18;99223.84;5092117;28;20035;-54
2023/07/15 04:39:57;;;;;;;2.30;1.27;;;;;;;16.57;75.22;99209.19;5089199;28;20029;-53
2023/07/15 04:42:22;;;;;;;3.40;1.40;;;;;;;16.61;75.62;99224.03;5071128;28;20116;-51
2023/07/15 04:44:48;;;;;;;1.42;1.25;;;;;;;16.64;75.42;99221.00;5071848;28;20383;-51
2023/07/15 04:47:14;;;;;;;2.97;1.23;;;;;;;16.68;75.36;99222.31;5072412;28;20475;-54
2023/07/15 04:49:39;;;;;;;2.45;1.50;;;;;;;16.72;75.72;99228.19;5072232;28;20036;-54
2023/07/15 04:52:05;;;;;;;2.28;1.30;;;;;;;16.71;75.05;99223.78;5091849;28;20035;-51
2023/07/15 04:54:30;;;;;;;4.25;1.60;;;;;;;16.63;75.04;99227.38;5092344;28;20369;-62
2023/07/15 04:56:56;;;;;;;4.20;1.50;;;;;;;16.65;75.21;99234.31;5092283;28;20032;-53
2023/07/15 04:59:22;;;;;;;3.22;1.25;;;;;;;16.65;75.33;99239.72;5092093;28;20039;-53
2023/07/15 05:01:48;;;;;;;2.50;1.30;;;;;;;16.69;75.24;99239.34;5073610;28;20406;-55
2023/07/15 05:04:14;;;;;;;3.28;1.60;;;;;;;16.54;75.39;99205.00;5071958;28;20035;-51
2023/07/15 05:06:39;;;;;;;4.68;1.65;;;;;;;16.82;75.56;99242.31;5071658;28;20074;-54
2023/07/15 05:09:04;;;;;;;2.90;1.45;;;;;;;16.85;75.50;99252.78;5071992;28;20075;-56
2023/07/15 05:11:30;;;;;;;1.55;1.45;;;;;;;16.73;74.95;99216.34;5086832;28;20042;-52
2023/07/15 05:13:56;;;;;;;2.53;1.35;;;;;;;16.94;74.44;99238.16;5090475;28;20024;-56
2023/07/15 05:16:22;;;;;;;1.45;1.33;;;;;;;16.60;74.68;99177.25;5072707;28;20047;-52
2023/07/15 05:18:47;;;;;;;1.60;1.48;;;;;;;17.07;74.48;99237.59;5072181;28;20036;-56
2023/07/15 05:21:14;;;;;;;2.83;1.33;;;;;;;17.19;74.86;99250.72;5083904;28;20444;-55
2023/07/15 05:23:40;;;;;;;2.70;1.35;;;;;;;17.22;74.25;99240.34;5091648;28;20032;-55
2023/07/15 05:26:06;;;;;;;2.17;1.23;;;;;;;17.21;73.72;99232.44;5092121;28;20089;-56
2023/07/15 05:28:32;;;;;;;2.17;1.50;;;;;;;16.92;73.40;99190.72;5092143;28;20035;-55
2023/07/15 05:31:02;;;;;;;1.95;1.10;;;;;;;17.34;73.71;99238.06;5081399;28;20032;-57
2023/07/15 05:33:28;;;;;;;1.90;1.67;;;;;;;16.86;73.47;99181.47;5071721;28;20115;-57
2023/07/15 05:35:54;;;;;;;2.38;1.42;;;;;;;17.24;73.02;99237.47;5071963;28;20111;-54
2023/07/15 05:38:24;;;;;;;2.13;1.70;;;;;;;17.32;73.44;99250.94;5073080;28;20411;-57
2023/07/15 05:40:51;;;;;;;4.95;1.60;;;;;;;17.28;72.88;99236.09;5071549;28;20115;-55
2023/07/15 05:43:16;;;;;;;4.70;1.73;;;;;;;17.51;72.22;99243.31;5071428;28;20353;-54
2023/07/15 05:45:42;;;;;;;3.45;1.63;;;;;;;17.55;72.22;99238.41;5071726;28;20036;-56
2023/07/15 05:48:07;;;;;;;3.17;1.80;;;;;;;17.49;71.91;99231.84;5071735;28;20086;-55
2023/07/15 05:50:36;;;;;;;3.72;1.60;;;;;;;17.53;71.82;99257.50;5075892;28;20444;-66
2023/07/15 05:53:06;;;;;;;3.28;1.67;;;;;;;17.55;72.19;99257.34;5085415;28;20353;-59
2023/07/15 05:55:33;;;;;;;1.73;1.60;;;;;;;17.48;72.15;99254.53;5095605;28;20115;-60
2023/07/15 05:58:00;;;;;;;4.95;1.70;;;;;;;17.49;72.42;99261.63;5094948;28;20024;-59
2023/07/15 06:00:26;;;;;;;1.63;1.42;;;;;;;17.55;72.01;99255.47;5095101;28;20360;-57
2023/07/15 06:02:52;;;;;;;1.73;1.50;;;;;;;17.57;72.24;99241.75;5079160;28;20077;-59
2023/07/15 06:05:17;;;;;;;1.63;1.50;;;;;;;17.69;71.65;99245.69;5074847;28;20041;-58
2023/07/15 06:07:43;;;;;;;2.92;1.40;;;;;;;17.76;71.42;99256.63;5076354;28;20053;-58
2023/07/15 06:10:09;;;;;;;1.35;1.13;;;;;;;17.59;71.84;99224.28;5092515;28;20060;-61
2023/07/15 06:12:34;;;;;;;3.65;1.30;;;;;;;17.90;70.86;99258.50;5093294;28;20395;-56
2023/07/15 06:15:00;;;;;;;3.30;1.35;;;;;;;18.04;70.18;99262.28;5095234;28;20040;-58
2023/07/15 06:17:25;;;;;;;2.88;2.20;;;;;;;18.21;70.15;99270.22;5095367;28;20066;-62
2023/07/15 06:19:51;;;;;;;1.35;1.25;;;;;;;18.25;69.12;99262.56;5081927;28;20126;-61
2023/07/15 06:22:16;;;;;;;1.42;1.15;;;;;;;18.41;69.08;99262.34;5075585;28;20120;-58
2023/07/15 06:24:42;;;;;;;3.97;1.85;;;;;;;18.42;69.42;99233.38;5074311;28;20452;-57
2023/07/15 06:27:08;;;;;;;1.50;1.30;;;;;;;18.72;67.83;99269.41;5075305;28;20063;-56
2023/07/15 06:29:34;;;;;;;1.30;1.20;;;;;;;18.42;67.93;99246.91;5074696;28;20359;-56
2023/07/15 06:31:59;;;;;;;1.73;1.30;;;;;;;18.53;68.52;99273.56;5080444;28;20024;-56
2023/07/15 06:34:25;;;;;;;1.40;1.30;;;;;;;18.49;68.37;99275.78;5094428;28;20246;-57
2023/07/15 06:36:51;;;;;;;3.15;1.40;;;;;;;18.49;68.92;99283.09;5094702;28;20031;-54
2023/07/15 06:39:17;;;;;;;2.10;1.25;;;;;;;18.45;68.85;99285.34;5081586;28;20116;-54
2023/07/15 06:41:42;;;;;;;3.88;1.67;;;;;;;18.45;68.87;99288.06;5075455;28;20058;-58
2023/07/15 06:44:08;;;;;;;2.13;1.48;;;;;;;18.55;69.55;99287.75;5073158;28;20126;-59
2023/07/15 06:46:33;;;;;;;4.45;1.40;;;;;;;18.59;68.46;99285.53;5074033;28;20380;-57
2023/07/15 06:48:59;;;;;;;4.50;1.48;;;;;;;18.39;69.00;99255.44;5074192;28;20024;-56
2023/07/15 06:51:24;;;;;;;4.28;1.70;;;;;;;18.68;68.97;99289.78;5076158;28;20466;-57
2023/07/15 06:53:50;;;;;;;2.00;1.58;;;;;;;18.73;68.79;99294.66;5073604;28;20036;-55
2023/07/15 06:56:15;;;;;;;3.47;1.48;;;;;;;18.80;67.68;99290.13;5074165;28;20044;-54
2023/07/15 06:58:41;;;;;;;2.45;1.58;;;;;;;18.94;67.49;99291.97;5074005;28;20024;-58
2023/07/15 07:01:06;;;;;;;3.33;1.85;;;;;;;19.17;67.52;99299.13;5076103;28;20097;-53
2023/07/15 07:03:35;;;;;;;3.78;1.85;;;;;;;19.36;66.48;99294.06;5093558;28;20063;-56
2023/07/15 07:06:01;;;;;;;2.80;1.45;;;;;;;19.30;65.92;99297.56;5093344;28;20036;-57
2023/07/15 07:08:27;;;;;;;2.72;1.95;;;;;;;19.06;66.78;99273.34;5093555;28;20066;-56
2023/07/15 07:10:53;;;;;;;4.13;1.92;;;;;;;19.18;66.46;99308.09;5092091;28;20035;-52
2023/07/15 07:13:19;;;;;;;2.58;1.73;;;;;;;19.03;66.60;99278.31;5090504;28;20102;-57
2023/07/15 07:15:45;;;;;;;2.25;1.60;;;;;;;19.38;66.37;99307.47;5073661;28;20131;-60
2023/07/15 07:18:11;;;;;;;3.95;2.00;;;;;;;19.49;65.71;99306.94;5073429;28;20032;-57
2023/07/15 07:20:41;;;;;;;2.58;1.77;;;;;;;19.59;65.57;99315.59;5073565;28;20082;-54
2023/07/15 07:23:07;;;;;;;3.08;1.65;;;;;;;19.61;65.36;99310.81;5092403;28;20115;-56
2023/07/15 07:25:32;;;;;;;2.47;1.92;;;;;;;19.73;64.48;99304.84;5093527;28;20135;-55
2023/07/15 07:27:58;;;;;;;3.72;2.17;;;;;;;19.78;64.35;99302.38;5092462;28;20115;-56
2023/07/15 07:30:23;;;;;;;2.85;1.90;;;;;;;20.03;64.10;99316.38;5093353;28;20390;-55
2023/07/15 07:32:49;;;;;;;3.28;2.30;;;;;;;20.11;63.29;99314.53;5077414;28;20060;-52
2023/07/15 07:35:15;;;;;;;5.28;2.40;;;;;;;20.15;63.14;99319.38;5073115;28;20112;-53
2023/07/15 07:37:40;;;;;;;2.83;2.10;;;;;;;20.16;63.21;99315.63;5075704;28;20039;-58
2023/07/15 07:40:09;;;;;;;4.60;2.20;;;;;;;20.26;62.80;99319.88;5075920;28;20059;-56
2023/07/15 07:42:35;;;;;;;4.50;2.38;;;;;;;20.23;62.58;99305.63;5073792;28;20449;-54
2023/07/15 07:45:01;;;;;;;5.30;2.60;;;;;;;20.31;62.49;99317.41;5073094;28;20080;-55
2023/07/15 07:47:26;;;;;;;3.92;2.40;;;;;;;20.36;62.91;99323.91;5072412;28;20028;-56
2023/07/15 07:49:52;;;;;;;4.07;2.25;;;;;;;20.24;61.80;99284.75;5072541;28;20088;-55
2023/07/15 07:52:17;;;;;;;3.85;2.55;;;;;;;20.49;62.14;99320.41;5083947;28;20131;-56
2023/07/15 07:54:43;;;;;;;3.63;2.38;;;;;;;20.50;62.03;99316.69;5093338;28;20416;-54
2023/07/15 07:57:10;;;;;;;3.60;2.53;;;;;;;20.59;61.78;99311.88;5093084;28;20027;-56
2023/07/15 07:59:35;;;;;;;3.63;2.50;;;;;;;20.64;61.86;99322.16;5092744;28;20028;-58
2023/07/15 08:02:01;;;;;;;4.50;2.72;;;;;;;20.58;61.66;99309.38;5084436;28;20459;-59
2023/07/15 08:04:26;;;;;;;6.40;2.95;;;;;;;20.67;61.54;99320.94;5073980;28;20031;-56
2023/07/15 08:06:52;;;;;;;6.20;3.08;;;;;;;20.61;61.27;99323.38;5071336;28;20032;-53
2023/07/15 08:09:18;;;;;;;5.53;2.97;;;;;;;20.47;61.46;99319.78;5072005;28;20079;-50
2023/07/15 08:11:44;;;;;;;4.18;2.92;;;;;;;20.36;62.38;99328.50;5077302;28;20051;-54
2023/07/15 08:14:10;;;;;;;5.35;3.22;;;;;;;20.08;62.88;99303.03;5093261;28;20046;-54
2023/07/15 08:16:37;;;;;;;6.35;3.38;;;;;;;20.16;63.96;99331.94;5092507;28;20107;-56
2023/07/15 08:19:04;;;;;;;5.00;3.13;;;;;;;20.19;63.34;99331.53;5092611;28;20078;-57
2023/07/15 08:21:30;;;;;;;5.47;3.00;;;;;;;20.13;63.11;99326.91;5088875;28;20052;-54
2023/07/15 08:23:56;;;;;;;4.57;3.28;;;;;;;20.12;63.51;99324.38;5072134;28;20042;-55
2023/07/15 08:26:23;;;;;;;5.97;3.80;;;;;;;19.73;64.17;99243.22;5072111;28;20403;-56
2023/07/15 08:28:49;;;;;;;5.85;2.95;;;;;;;20.33;63.45;99328.91;5075182;28;20081;-55
2023/07/15 08:31:15;;;;;;;4.57;3.28;;;;;;;20.34;64.02;99320.53;5091186;28;20039;-56
2023/07/15 08:33:41;;;;;;;5.90;3.28;;;;;;;20.37;63.39;99316.59;5090581;28;20432;-56
2023/07/15 08:36:07;;;;;;;4.35;3.53;;;;;;;20.51;63.80;99331.09;5092367;28;20095;-57
2023/07/15 08:38:33;;;;;;;6.13;3.38;;;;;;;20.45;63.49;99323.75;5091710;28;20139;-59
2023/07/15 08:41:00;;;;;;;6.00;3.97;;;;;;;20.49;63.33;99334.00;5092159;28;20036;-59
2023/07/15 08:43:27;;;;;;;7.07;3.65;;;;;;;20.30;63.31;99299.41;5072961;28;20115;-57
2023/07/15 08:45:57;;;;;;;5.60;3.88;;;;;;;20.61;63.47;99328.00;5071229;28;20090;-54
2023/07/15 08:48:22;;;;;;;4.05;3.45;;;;;;;20.73;63.17;99334.53;5071992;28;20126;-55
2023/07/15 08:50:49;;;;;;;4.90;3.90;;;;;;;20.84;63.80;99341.31;5071586;28;20098;-54
2023/07/15 08:53:19;;;;;;;4.45;3.78;;;;;;;20.76;63.42;99326.00;5072245;28;20392;-58
2023/07/15 08:55:44;;;;;;;6.38;4.03;;;;;;;20.78;62.71;99336.66;5070938;28;20071;-57
2023/07/15 08:58:11;;;;;;;4.97;4.00;;;;;;;20.82;63.26;99339.84;5072588;28;20060;-55
2023/07/15 09:00:36;;;;;;;4.38;3.97;;;;;;;20.96;62.28;99329.84;5072028;28;20028;-53
2023/07/15 09:03:03;;;;;;;6.38;3.65;;;;;;;21.19;61.50;99327.63;5072694;28;20040;-49
2023/07/15 09:05:29;;;;;;;6.90;4.10;;;;;;;21.45;61.32;99333.31;5070271;28;20116;-54
2023/07/15 09:07:57;;;;;;;4.90;4.00;;;;;;;21.82;59.98;99333.78;5071915;28;20072;-52
2023/07/15 09:10:23;;;;;;;5.28;4.88;;;;;;;22.19;59.60;99347.81;5072264;28;20029;-57
2023/07/15 09:12:53;;;;;;;4.78;4.15;;;;;;;22.32;57.98;99305.19;5084064;28;20060;-55
2023/07/15 09:15:19;;;;;;;6.85;4.57;;;;;;;22.47;57.43;99341.28;5090359;28;20032;-54
2023/07/15 09:17:59;;;;;;;6.85;4.95;;;;;;;22.56;58.05;99332.84;5074451;28;20025;-53
2023/07/15 09:20:26;;;;;;;6.38;4.40;;;;;;;22.40;58.33;99342.31;5071882;28;20029;-55
2023/07/15 09:22:57;;;;;;;5.45;4.47;;;;;;;22.47;58.63;99346.75;5087409;28;20115;-55
2023/07/15 09:25:23;;;;;;;5.70;4.10;;;;;;;22.44;56.91;99343.56;5091618;28;20101;-54
2023/07/15 09:27:49;;;;;;;5.50;3.00;;;;;;;22.44;56.46;99338.97;5093454;28;20475;-58
2023/07/15 09:30:15;;;;;;;10.43;3.00;;;;;;;22.55;56.80;99342.09;5095633;28;20119;-52
2023/07/15 09:32:41;;;;;;;4.47;2.85;;;;;;;22.58;55.73;99336.22;5095346;28;20429;-55
2023/07/15 09:35:07;;;;;;;5.28;2.90;;;;;;;22.49;56.06;99327.41;5095598;28;20119;-55
2023/07/15 09:37:33;;;;;;;4.07;3.10;;;;;;;22.36;56.68;99342.75;5095813;28;20047;-54
2023/07/15 09:40:01;;;;;;;5.25;3.50;;;;;;;22.13;57.53;99343.19;5089579;28;20032;-55
2023/07/15 09:42:48;;;;;;;6.30;3.50;;;;;;;22.03;58.23;99342.78;5088237;28;20118;-56
2023/07/15 09:45:31;;;;;;;6.20;3.65;;;;;;;22.12;58.93;99346.16;5095821;28;20071;-54
2023/07/15 09:47:57;;;;;;;4.88;3.45;;;;;;;21.82;58.44;99338.38;5095987;28;20035;-55
2023/07/15 09:50:24;;;;;;;4.05;3.38;;;;;;;21.75;59.36;99354.75;5095974;28;20024;-51
2023/07/15 09:52:53;;;;;;;4.18;3.20;;;;;;;21.66;59.66;99354.13;5079526;28;20036;-55
2023/07/15 09:55:19;;;;;;;4.50;2.40;;;;;;;21.51;59.71;99351.56;5074986;28;20039;-55
2023/07/15 09:57:48;;;;;;;5.05;2.30;;;;;;;21.50;59.82;99358.06;5075622;28;20078;-54
2023/07/15 10:00:15;;;;;;;2.50;1.95;;;;;;;21.60;59.78;99346.75;5093453;28;20035;-56
2023/07/15 10:02:44;;;;;;;3.45;2.00;;;;;;;21.80;59.01;99363.13;5094601;28;20035;-56
2023/07/15 10:05:13;;;;;;;2.65;1.80;;;;;;;21.77;59.34;99352.66;5081067;28;20028;-51
2023/07/15 10:07:40;;;;;;;3.00;1.58;;;;;;;21.55;58.67;99351.97;5073902;28;20048;-56
2023/07/15 10:10:07;;;;;;;2.03;1.05;;;;;;;21.19;58.77;99348.53;5075110;28;20432;-53
2023/07/15 10:12:35;;;;;;;1.38;1.27;;;;;;;20.90;58.80;99328.78;5075287;28;20609;-53
2023/07/15 10:15:02;;;;;;;1.20;1.10;;;;;;;20.85;58.51;99355.78;5074669;28;20028;-57
2023/07/15 10:17:36;;;;;;;1.30;1.20;;;;;;;20.66;60.09;99360.88;5074542;28;20032;-54
2023/07/15 10:20:04;;;;;;;1.65;1.20;;;;;;;20.49;60.99;99352.22;5075687;28;20108;-60
2023/07/15 10:22:35;;;;;;;1.67;1.58;;;;;;;20.42;61.97;99368.47;5074845;28;20190;-58
2023/07/15 10:25:03;;;;;;;3.88;1.92;;;;;;;20.25;63.47;99358.94;5073495;28;20071;-58
2023/07/15 10:27:32;;;;;;;5.15;1.65;;;;;;;20.15;63.47;99357.44;5074815;28;20068;-56
2023/07/15 10:30:18;;;;;;;4.70;1.70;;;;;;;20.30;63.58;99364.66;5092870;28;20024;-58
2023/07/15 10:33:00;;;;;;;1.63;1.52;;;;;;;20.27;64.64;99359.63;5093885;28;20032;-57
2023/07/15 10:35:45;;;;;;;2.30;1.50;;;;;;;20.16;63.93;99364.53;5094620;28;20047;-59
2023/07/15 10:38:28;;;;;;;3.13;1.77;;;;;;;20.37;63.95;99351.94;5090369;28;20437;-58
2023/07/15 10:41:02;;;;;;;3.00;1.75;;;;;;;20.59;64.06;99352.66;5091393;28;20434;-57
2023/07/15 10:43:33;;;;;;;4.28;1.98;;;;;;;20.88;63.04;99355.34;5094238;28;20109;-59
2023/07/15 10:46:03;;;;;;;4.07;2.00;;;;;;;21.00;61.17;99353.75;5094172;28;20481;-59
2023/07/15 10:48:29;;;;;;;5.30;2.30;;;;;;;21.35;60.32;99355.53;5087975;28;20103;-56
2023/07/15 10:50:57;;;;;;;3.55;2.20;;;;;;;21.52;59.36;99355.97;5073273;28;20120;-57
2023/07/15 10:53:29;;;;;;;3.25;2.30;;;;;;;21.73;58.82;99351.41;5085669;28;20028;-53
2023/07/15 10:56:01;;;;;;;3.90;2.10;;;;;;;21.87;59.05;99350.34;5094414;28;20039;-57
2023/07/15 10:58:28;;;;;;;4.20;2.30;;;;;;;21.89;58.99;99347.41;5087195;28;20348;-59
2023/07/15 11:00:59;;;;;;;3.13;2.30;;;;;;;22.04;58.07;99352.66;5073634;28;20033;-57
2023/07/15 11:03:26;;;;;;;4.82;2.17;;;;;;;21.85;57.51;99317.00;5073918;28;20135;-57
2023/07/15 11:05:54;;;;;;;4.25;2.58;;;;;;;22.14;56.70;99350.31;5074090;28;20049;-57
2023/07/15 11:08:20;;;;;;;3.00;2.67;;;;;;;22.34;57.35;99333.09;5074663;28;20048;-56
2023/07/15 11:10:46;;;;;;;4.43;2.55;;;;;;;22.59;56.18;99343.34;5074601;28;20037;-55
2023/07/15 11:13:16;;;;;;;3.70;2.10;;;;;;;22.83;55.74;99347.25;5073594;28;20893;-56
2023/07/15 11:15:43;;;;;;;3.67;2.70;;;;;;;22.85;54.39;99349.75;5073337;28;20478;-56
2023/07/15 11:18:19;;;;;;;2.75;2.20;;;;;;;22.74;53.90;99341.19;5086410;28;20028;-56
2023/07/15 11:20:46;;;;;;;3.65;2.00;;;;;;;22.67;54.16;99343.13;5072778;28;20086;-60
2023/07/15 11:23:11;;;;;;;1.98;1.85;;;;;;;22.55;53.81;99334.75;5073373;28;20354;-55
2023/07/15 11:25:37;;;;;;;3.78;2.20;;;;;;;22.72;54.00;99342.44;5073024;28;20032;-56
2023/07/15 11:28:04;;;;;;;4.10;1.90;;;;;;;22.88;53.68;99322.00;5073036;28;20108;-56
2023/07/15 11:30:40;;;;;;;6.32;1.75;;;;;;;23.35;52.80;99349.13;5078399;28;20033;-58
2023/07/15 11:33:07;;;;;;;3.92;1.90;;;;;;;23.29;52.29;99347.25;5070606;28;20033;-58